Latest Coastal Weather Observations for Portland Airport

IDS60701

Issued at 3:25 pm CDT Friday 31 October 2014 (issued every 10 minutes, with the page automatically refreshed every 10 minutes)

About coastal observations | Map of coastal stations | Coastal observations for SA | Marine services | Other Formats
Station Details ID: 090171 Name: CASHMORE AIRPORT Lat: -38.31 Lon: 141.47 Height: 80.9 m
Data from the previous 72 hours. | See also: Recent months at Portland Airport
Date/Time
CDT
Temp

°C
Wind Pressure Rain
since 9am
mm
Weather Cloud Vis
km
Sea
Height
m
Swell
Dir
 
Speed
knots
Gust
knots
hPa Trend Height
m
Period
s
Dir
31/03:00pm 28.6 NNW 16 25 998.6 - 0.2 - - 10 - - - -
31/02:30pm 29.4 NNW 18 26 999.0 - 0.2 - Partly cloudy 10 - - - -
31/02:04pm 29.7 N 19 29 999.5 - 0.2 - - 10 - - - -
31/02:00pm 29.7 NNW 19 28 999.6 - 0.2 - - 10 - - - -
31/01:32pm 29.4 N 15 25 1000.1 - 0.2 - - 10 - - - -
31/01:30pm 29.4 N 14 23 1000.1 - 0.2 - - 10 - - - -
31/01:00pm 27.7 NNW 17 25 1000.9 - 0.2 - Partly cloudy 10 - - - -
31/12:35pm 27.5 N 15 25 1000.9 - 0.2 - Partly cloudy 10 - - - -
31/12:30pm 27.1 N 16 24 1001.0 - 0.2 - Partly cloudy 10 - - - -
31/12:00pm 26.0 N 17 28 1001.5 - 0.2 - Cloudy 10 - - - -
31/11:34am 26.1 N 18 28 1002.0 - 0.2 - Partly cloudy 10 - - - -
31/11:30am 26.3 N 17 26 1002.1 - 0.2 Recent precip. Partly cloudy 10 - - - -
31/11:25am 26.2 N 16 26 1002.1 - 0.2 - Partly cloudy 10 - - - -
31/11:00am 25.2 N 15 23 1002.6 - 0.2 - - 10 - - - -
31/10:30am 23.2 N 13 21 1003.2 - 0.0 - - 10 - - - -
31/10:00am 21.2 N 14 20 1003.9 - 0.0 - - 10 - - - -
31/09:30am 20.1 N 12 17 1004.3 - 0.0 - - 10 - - - -
31/09:00am 17.4 N 9 13 1004.9 - 0.0 - - 10 - - - -
31/08:30am 14.0 N 10 13 1005.3 - 0.0 - Mostly cloudy 10 - - - -
31/08:00am 12.6 N 9 12 1005.7 - 0.0 - Partly cloudy 10 - - - -
31/07:30am 11.1 N 9 12 1005.8 - 0.0 - Partly cloudy 10 - - - -
31/07:00am 10.2 N 7 10 1006.6 - 0.0 - Partly cloudy 10 - - - -
31/06:30am 9.7 N 7 11 1006.9 - 0.0 - - 10 - - - -
31/06:00am 9.4 N 6 8 1007.4 - 0.0 - - 10 - - - -
31/05:30am 8.9 NNE 6 7 1007.5 - 0.0 - Cloudy 10 - - - -
31/05:00am 8.6 NNE 5 6 1007.9 - 0.0 - - 10 - - - -
31/04:30am 8.6 NNE 6 8 1008.4 - 0.0 - - 10 - - - -
31/04:00am 8.4 NNE 7 9 1008.7 - 0.0 - - 10 - - - -
31/03:30am 8.0 NNE 7 8 1009.3 - 0.0 - - 10 - - - -
31/03:00am 7.7 NNE 7 8 1009.9 - 0.0 - - 10 - - - -
31/02:30am 7.6 N 6 8 1010.3 - 0.0 - Partly cloudy 10 - - - -
31/02:00am 7.3 N 5 5 1010.7 - 0.0 - - 10 - - - -
31/01:30am 7.9 NNE 5 7 1011.5 - 0.0 - - 10 - - - -
31/01:00am 8.2 N 6 7 1012.2 - 0.0 - - 10 - - - -
31/12:30am 7.7 N 6 7 1012.9 - 0.0 - - 10 - - - -
31/12:00am 7.7 N 6 8 1012.8 - 0.0 - - 10 - - - -
 
Date/Time
CDT
Temp

°C
Wind Pressure Rain
since 9am
mm
Weather Cloud Vis
km
Sea
Height
m
Swell
Dir
 
Speed
knots
Gust
knots
hPa Trend Height
m
Period
s
Dir
30/11:30pm 8.9 N 7 8 1012.9 - 0.0 - - 10 - - - -
30/11:00pm 8.8 W 5 6 1013.2 - 0.0 - - 10 - - - -
30/10:30pm 9.2 WSW 2 4 1013.7 - 0.0 - - 10 - - - -
30/10:00pm 8.8 WSW 6 7 1014.1 - 0.0 - - 10 - - - -
30/09:30pm 9.6 WSW 7 8 1014.3 - 0.0 - - 10 - - - -
30/09:00pm 9.3 WSW 6 7 1013.9 - 0.0 - - 10 - - - -
30/08:30pm 10.0 W 6 7 1013.8 - 0.0 - - 10 - - - -
30/08:00pm 10.8 W 7 9 1013.7 - 0.0 - - 10 - - - -
30/07:30pm 12.4 WSW 8 12 1013.4 - 0.0 - - 10 - - - -
30/07:00pm 13.7 WSW 9 12 1013.5 - 0.0 - - 10 - - - -
30/06:30pm 14.5 W 10 12 1013.3 - 0.0 - - 10 - - - -
30/06:00pm 15.0 W 10 15 1013.3 - 0.0 - Partly cloudy 10 - - - -
30/05:30pm 15.2 W 12 16 1013.4 - 0.0 - Mostly clear 10 - - - -
30/05:00pm 15.4 W 12 16 1013.5 - 0.0 - Partly cloudy 10 - - - -
30/04:30pm 15.8 W 11 18 1013.7 - 0.0 - Partly cloudy 10 - - - -
30/04:00pm 15.3 W 13 18 1013.8 - 0.0 - Partly cloudy 10 - - - -
30/03:30pm 15.5 W 13 18 1014.1 - 0.0 - Partly cloudy 10 - - - -
30/03:00pm 16.2 W 13 19 1014.2 - 0.0 - Partly cloudy 10 - - - -
30/02:30pm 16.1 W 14 20 1014.4 - 0.0 - Mostly clear 10 - - - -
30/02:00pm 16.3 W 12 16 1014.8 - 0.0 - Cloudy 10 - - - -
30/01:30pm 16.6 W 15 21 1014.9 - 0.0 - Partly cloudy 10 - - - -
30/01:00pm 15.9 WNW 12 18 1014.8 - 0.0 - Cloudy 10 - - - -
30/12:30pm 15.5 W 12 17 1015.0 - 0.0 - Cloudy 10 - - - -
30/12:00pm 15.8 WNW 13 17 1015.1 - 0.0 - Cloudy 10 - - - -
30/11:30am 14.7 W 13 19 1015.3 - 0.0 - Cloudy 10 - - - -
30/11:00am 14.6 WNW 14 19 1015.6 - 0.0 - Partly cloudy 10 - - - -
30/10:30am 14.8 W 13 19 1015.6 - 0.0 - Partly cloudy 10 - - - -
30/10:00am 14.3 W 12 16 1015.5 - 0.0 - Partly cloudy 10 - - - -
30/09:30am 14.5 W 11 16 1015.7 - 0.0 - Partly cloudy 10 - - - -
30/09:00am 13.5 W 9 12 1015.7 - 0.0 - Partly cloudy 10 - - - -
30/08:30am 12.8 W 10 13 1015.9 - 0.0 - Cloudy 10 - - - -
30/08:22am 12.3 W 11 15 1016.0 - 0.0 - Partly cloudy 10 - - - -
30/08:11am 12.7 W 12 16 1015.9 - 0.0 - Partly cloudy 10 - - - -
30/08:00am 12.3 W 12 15 1015.8 - 0.0 - Partly cloudy 6 - - - -
30/07:44am 12.2 NW 7 12 1015.6 - 0.0 - Partly cloudy 6 - - - -
30/07:30am 12.2 NW 5 7 1015.3 - 0.0 - Partly cloudy 10 - - - -
30/07:00am 12.5 NW 6 8 1014.8 - 0.0 - Partly cloudy 10 - - - -
30/06:30am 12.8 W 7 10 1014.6 - 0.0 - Partly cloudy 10 - - - -
30/06:00am 13.0 W 9 14 1014.7 - 0.0 - Partly cloudy 10 - - - -
30/05:30am 13.0 W 7 11 1014.4 - 0.0 - Cloudy 10 - - - -
30/05:00am 13.0 WNW 7 10 1014.0 - 0.0 - Cloudy 10 - - - -
30/04:30am 13.0 W 8 12 1014.4 - 0.0 - Cloudy 10 - - - -
30/04:00am 12.8 W 7 9 1014.2 - 0.0 - Cloudy 10 - - - -
30/03:30am 13.0 WSW 10 15 1014.6 - 0.0 - Cloudy 10 - - - -
30/03:00am 13.1 W 10 16 1014.7 - 0.0 - Cloudy 10 - - - -
30/02:30am 13.0 W 15 19 1014.7 - 0.0 - Cloudy 10 - - - -
30/02:00am 12.9 W 11 17 1014.7 - 0.0 - Cloudy 10 - - - -
30/01:30am 13.0 W 12 17 1015.0 - 0.0 - Cloudy 10 - - - -
30/01:00am 12.7 W 10 13 1015.1 - 0.0 - Cloudy 10 - - - -
30/12:30am 12.6 W 8 12 1015.5 - 0.0 - Partly cloudy 10 - - - -
30/12:00am 12.1 W 7 8 1015.8 - 0.0 - Cloudy 10 - - - -
 
Date/Time
CDT
Temp

°C
Wind Pressure Rain
since 9am
mm
Weather Cloud Vis
km
Sea
Height
m
Swell
Dir
 
Speed
knots
Gust
knots
hPa Trend Height
m
Period
s
Dir
29/11:30pm 12.2 W 8 12 1016.1 - 0.0 - Cloudy 10 - - - -
29/11:00pm 12.6 WSW 9 12 1016.4 - 0.0 - Partly cloudy 10 - - - -
29/10:30pm 13.1 W 11 15 1016.6 - 0.0 - Partly cloudy 10 - - - -
29/10:00pm 12.9 W 8 11 1016.8 - 0.0 - Partly cloudy 10 - - - -
29/09:30pm 13.3 W 10 15 1016.7 - 0.0 - Partly cloudy 10 - - - -
29/09:00pm 12.8 WNW 8 10 1016.7 - 0.0 - Cloudy 10 - - - -
29/08:30pm 12.6 WNW 9 11 1016.7 - 0.0 - Cloudy 10 - - - -
29/08:00pm 12.6 W 14 20 1016.7 - 0.0 - Partly cloudy 10 - - - -
29/07:30pm 13.0 W 10 14 1016.6 - 0.0 - Partly cloudy 10 - - - -
29/07:00pm 13.3 W 13 21 1016.6 - 0.0 - Partly cloudy 10 - - - -
29/06:30pm 13.2 W 14 19 1016.3 - 0.0 - Partly cloudy 10 - - - -
29/06:26pm 13.2 W 14 19 1016.3 - 0.0 - Partly cloudy 10 - - - -
29/06:03pm 13.4 W 15 22 1016.2 - 0.0 - Partly cloudy 10 - - - -
29/06:00pm 13.5 W 15 21 1016.2 - 0.0 - Partly cloudy 10 - - - -
29/05:30pm 14.3 W 17 22 1016.3 - 0.0 - Cloudy 10 - - - -
29/05:00pm 15.4 W 19 26 1016.0 - 0.0 - Partly cloudy 10 - - - -
29/04:30pm 15.8 W 18 25 1016.0 - 0.0 - Partly cloudy 10 - - - -
29/04:15pm 15.4 W 19 29 1016.0 - 0.0 - Cloudy 10 - - - -
29/04:04pm 15.3 W 18 24 1016.1 - 0.0 - Partly cloudy 10 - - - -
29/04:00pm 15.1 W 18 24 1016.0 - 0.0 - Partly cloudy 10 - - - -
29/03:33pm 16.0 W 17 25 1016.1 - 0.0 - Partly cloudy 10 - - - -
29/03:30pm 15.4 W 18 25 1016.1 - 0.0 - Partly cloudy 10 - - - -
29/03:00pm 16.2 W 18 25 1016.2 - 0.0 - Partly cloudy 10 - - - -
29/02:30pm 15.2 W 19 26 1016.4 - 0.0 - Cloudy 10 - - - -
29/02:00pm 15.6 W 17 23 1016.6 - 0.0 - Partly cloudy 10 - - - -
29/01:30pm 16.8 W 15 21 1016.6 - 0.0 - Partly cloudy 10 - - - -
29/01:00pm 16.4 W 16 21 1016.9 - 0.0 - Partly cloudy 10 - - - -
29/12:30pm 15.5 W 15 21 1016.9 - 0.0 - Partly cloudy 10 - - - -
29/12:00pm 15.8 WNW 14 19 1017.3 - 0.0 - Cloudy 10 - - - -
29/11:30am 15.6 WNW 14 19 1017.6 - 0.0 - Cloudy 10 - - - -
29/11:00am 14.6 WNW 13 19 1017.8 - 0.0 - Partly cloudy 10 - - - -
29/10:30am 14.2 NW 14 19 1017.9 - 0.0 - Partly cloudy 10 - - - -
29/10:00am 14.1 WNW 11 15 1018.0 - 0.0 - Partly cloudy 10 - - - -
29/09:30am 13.7 WNW 10 13 1018.0 - 0.0 - Cloudy 10 - - - -
29/09:00am 13.6 WNW 10 15 1018.0 - 0.0 - Cloudy 10 - - - -
29/08:30am 13.1 W 11 15 1018.0 - 0.0 - Cloudy 10 - - - -
29/08:00am 13.2 W 10 14 1017.9 - 0.0 - Cloudy 10 - - - -
29/07:30am 12.1 W 13 16 1017.9 - 0.0 - Partly cloudy 9 - - - -
29/07:00am 12.7 W 11 15 1017.8 - 0.0 - Cloudy 10 - - - -
29/06:30am 12.6 WNW 9 13 1017.7 - 0.0 - Cloudy 10 - - - -
29/06:00am 12.5 WNW 10 13 1017.5 - 0.0 - Cloudy 10 - - - -
29/05:30am 12.3 W 10 14 1017.3 - 0.0 - Cloudy 10 - - - -
29/05:00am 12.4 W 8 12 1017.2 - 0.0 - Partly cloudy 10 - - - -
29/04:30am 12.3 W 9 12 1017.0 - 0.0 - Partly cloudy 10 - - - -
29/04:00am 12.1 W 8 11 1017.0 - 0.0 - Cloudy 10 - - - -
29/03:30am 12.0 W 11 16 1017.1 - 0.0 - Cloudy 10 - - - -
29/03:00am 11.8 W 9 11 1017.1 - 0.0 - Partly cloudy 10 - - - -
29/02:30am 11.9 W 10 14 1017.3 - 0.0 - Cloudy 10 - - - -
29/02:00am 11.9 WSW 9 12 1017.4 - 0.0 - Partly cloudy 10 - - - -
29/01:30am 11.6 WSW 7 10 1017.6 - 0.0 - Partly cloudy 10 - - - -
29/01:00am 11.0 W 7 9 1017.8 - 0.0 - Partly cloudy 10 - - - -
29/12:30am 11.6 W 7 10 1018.0 - 0.0 - Partly cloudy 10 - - - -
29/12:00am 11.9 WSW 5 7 1018.1 - 0.0 - Partly cloudy 9 - - - -
 
Date/Time
CDT
Temp

°C
Wind Pressure Rain
since 9am
mm
Weather Cloud Vis
km
Sea
Height
m
Swell
Dir
 
Speed
knots
Gust
knots
hPa Trend Height
m
Period
s
Dir
28/11:30pm 11.8 W 10 12 1018.1 - 0.0 - Cloudy 10 - - - -
28/11:00pm 11.1 W 9 13 1018.0 - 0.0 - Partly cloudy 10 - - - -
28/10:30pm 10.7 W 8 10 1018.0 - 0.0 - Partly cloudy 10 - - - -
28/10:00pm 11.4 WSW 8 11 1018.0 - 0.0 - Partly cloudy 10 - - - -
28/09:30pm 12.1 WSW 10 15 1018.0 - 0.0 - Partly cloudy 10 - - - -
28/09:00pm 12.2 WSW 9 13 1017.9 - 0.0 - Partly cloudy 10 - - - -
28/08:30pm 12.2 SW 9 12 1017.7 - 0.0 - Cloudy 10 - - - -
28/08:00pm 12.5 W 14 18 1017.3 - 0.0 - Partly cloudy 10 - - - -
28/07:30pm 12.5 W 16 22 1017.1 - 0.0 - Partly cloudy 10 - - - -
28/07:00pm 12.7 W 14 18 1016.8 - 0.0 - Partly cloudy 10 - - - -
28/06:30pm 13.1 W 16 22 1016.3 - 0.0 - Partly cloudy 10 - - - -
28/06:00pm 13.6 W 14 20 1016.2 - 0.0 - Partly cloudy 10 - - - -
28/05:30pm 13.7 W 14 19 1016.0 - 0.0 - Cloudy 10 - - - -
28/05:00pm 13.7 W 16 22 1015.9 - 0.0 - Partly cloudy 10 - - - -
28/04:30pm 14.1 W 17 23 1015.6 - 0.0 - Partly cloudy 10 - - - -
28/04:00pm 15.1 WSW 18 25 1015.4 - 0.0 - - 10 - - - -
28/03:30pm 15.1 WSW 20 27 1015.3 - 0.0 - Partly cloudy 10 - - - -
28/03:13pm 15.2 WSW 19 29 1015.3 - 0.0 - Partly cloudy 10 - - - -
28/03:00pm 15.0 WSW 20 28 1015.2 - 0.0 - Partly cloudy 10 - - - -

Other Formats:

Comma delimited format used in spreadsheet applications
http://www.bom.gov.au/fwo/IDS60701/IDS60701.94828.axf

JavaScript Object Notation format (JSON) in row-major order
http://www.bom.gov.au/fwo/IDS60701/IDS60701.94828.json